sensor_id;sensor_type;location;lat;lon;timestamp;pressure;altitude;pressure_sealevel;temperature;humidity
73024;BME280;72676;47.526;8.538;2023-12-20T00:01:02;96732.75;;;5.32;72.15
73024;BME280;72676;47.526;8.538;2023-12-20T00:03:29;96717.97;;;5.47;71.81
73024;BME280;72676;47.526;8.538;2023-12-20T00:06:07;96697.59;;;5.67;71.63
73024;BME280;72676;47.526;8.538;2023-12-20T00:08:34;96680.09;;;5.83;71.34
73024;BME280;72676;47.526;8.538;2023-12-20T00:11:00;96686.56;;;5.90;70.19
73024;BME280;72676;47.526;8.538;2023-12-20T00:13:27;96696.22;;;5.88;70.13
73024;BME280;72676;47.526;8.538;2023-12-20T00:15:53;96690.66;;;5.94;69.76
73024;BME280;72676;47.526;8.538;2023-12-20T00:18:19;96696.31;;;5.60;70.27
73024;BME280;72676;47.526;8.538;2023-12-20T00:20:46;96691.69;;;5.51;70.84
73024;BME280;72676;47.526;8.538;2023-12-20T00:23:12;96678.69;;;5.25;71.83
73024;BME280;72676;47.526;8.538;2023-12-20T00:25:39;96682.91;;;5.40;71.31
73024;BME280;72676;47.526;8.538;2023-12-20T00:28:06;96673.19;;;5.29;71.31
73024;BME280;72676;47.526;8.538;2023-12-20T00:30:32;96672.28;;;5.30;71.01
73024;BME280;72676;47.526;8.538;2023-12-20T00:32:59;96665.41;;;5.29;70.86
73024;BME280;72676;47.526;8.538;2023-12-20T00:35:25;96663.56;;;5.31;71.11
73024;BME280;72676;47.526;8.538;2023-12-20T00:37:52;96660.03;;;5.32;70.17
73024;BME280;72676;47.526;8.538;2023-12-20T00:40:18;96652.59;;;5.40;70.07
73024;BME280;72676;47.526;8.538;2023-12-20T00:42:45;96659.59;;;5.26;70.32
73024;BME280;72676;47.526;8.538;2023-12-20T00:45:13;96656.00;;;5.14;71.16
73024;BME280;72676;47.526;8.538;2023-12-20T00:47:41;96652.31;;;5.04;71.49
73024;BME280;72676;47.526;8.538;2023-12-20T00:50:08;96649.16;;;5.13;71.54
73024;BME280;72676;47.526;8.538;2023-12-20T00:52:35;96644.63;;;5.29;71.02
73024;BME280;72676;47.526;8.538;2023-12-20T00:55:02;96640.72;;;5.36;70.58
73024;BME280;72676;47.526;8.538;2023-12-20T00:57:30;96646.59;;;5.52;70.43
73024;BME280;72676;47.526;8.538;2023-12-20T00:59:57;96649.00;;;5.55;69.75
73024;BME280;72676;47.526;8.538;2023-12-20T01:02:23;96647.72;;;5.74;69.54
73024;BME280;72676;47.526;8.538;2023-12-20T01:04:50;96659.44;;;5.94;68.74
73024;BME280;72676;47.526;8.538;2023-12-20T01:07:16;96654.44;;;5.91;68.57
73024;BME280;72676;47.526;8.538;2023-12-20T01:09:43;96654.22;;;5.81;68.82
73024;BME280;72676;47.526;8.538;2023-12-20T01:12:10;96660.47;;;5.65;68.95
73024;BME280;72676;47.526;8.538;2023-12-20T01:14:36;96662.06;;;5.41;70.16
73024;BME280;72676;47.526;8.538;2023-12-20T01:17:03;96662.44;;;5.35;70.33
73024;BME280;72676;47.526;8.538;2023-12-20T01:19:29;96661.00;;;5.17;71.36
73024;BME280;72676;47.526;8.538;2023-12-20T01:21:56;96659.63;;;5.12;71.43
73024;BME280;72676;47.526;8.538;2023-12-20T01:24:23;96663.06;;;5.12;71.36
73024;BME280;72676;47.526;8.538;2023-12-20T01:26:49;96655.34;;;5.11;71.71
73024;BME280;72676;47.526;8.538;2023-12-20T01:29:15;96661.41;;;5.11;72.38
73024;BME280;72676;47.526;8.538;2023-12-20T01:31:42;96653.94;;;5.19;71.85
73024;BME280;72676;47.526;8.538;2023-12-20T01:34:09;96655.94;;;5.28;72.04
73024;BME280;72676;47.526;8.538;2023-12-20T01:36:35;96661.50;;;5.36;71.72
73024;BME280;72676;47.526;8.538;2023-12-20T01:39:02;96663.28;;;5.36;71.17
73024;BME280;72676;47.526;8.538;2023-12-20T01:41:31;96659.75;;;5.37;71.50
73024;BME280;72676;47.526;8.538;2023-12-20T01:43:58;96653.94;;;5.19;72.68
73024;BME280;72676;47.526;8.538;2023-12-20T01:46:25;96656.22;;;5.11;73.55
73024;BME280;72676;47.526;8.538;2023-12-20T01:48:52;96654.28;;;5.01;73.99
73024;BME280;72676;47.526;8.538;2023-12-20T01:51:19;96652.50;;;5.01;74.36
73024;BME280;72676;47.526;8.538;2023-12-20T01:53:47;96662.50;;;5.07;74.41
73024;BME280;72676;47.526;8.538;2023-12-20T01:56:14;96664.00;;;4.97;74.73
73024;BME280;72676;47.526;8.538;2023-12-20T01:58:44;96644.81;;;5.00;74.98
73024;BME280;72676;47.526;8.538;2023-12-20T02:01:12;96647.00;;;5.06;74.65
73024;BME280;72676;47.526;8.538;2023-12-20T02:03:42;96656.88;;;5.01;75.34
73024;BME280;72676;47.526;8.538;2023-12-20T02:06:09;96650.09;;;4.98;75.28
73024;BME280;72676;47.526;8.538;2023-12-20T02:08:36;96650.47;;;4.92;75.68
73024;BME280;72676;47.526;8.538;2023-12-20T02:11:02;96656.41;;;4.94;75.78
73024;BME280;72676;47.526;8.538;2023-12-20T02:13:30;96655.94;;;4.88;75.97
73024;BME280;72676;47.526;8.538;2023-12-20T02:15:57;96650.88;;;4.86;76.66
73024;BME280;72676;47.526;8.538;2023-12-20T02:18:23;96642.81;;;4.91;76.00
73024;BME280;72676;47.526;8.538;2023-12-20T02:20:50;96639.72;;;4.98;75.75
73024;BME280;72676;47.526;8.538;2023-12-20T02:23:17;96647.41;;;5.00;75.92
73024;BME280;72676;47.526;8.538;2023-12-20T02:25:43;96658.81;;;4.97;75.89
73024;BME280;72676;47.526;8.538;2023-12-20T02:28:10;96661.69;;;4.93;76.02
73024;BME280;72676;47.526;8.538;2023-12-20T02:30:36;96657.34;;;4.93;77.00
73024;BME280;72676;47.526;8.538;2023-12-20T02:33:07;96651.22;;;4.94;77.59
73024;BME280;72676;47.526;8.538;2023-12-20T02:35:35;96659.19;;;4.91;77.59
73024;BME280;72676;47.526;8.538;2023-12-20T02:38:01;96659.00;;;4.80;78.50
73024;BME280;72676;47.526;8.538;2023-12-20T02:40:28;96660.88;;;4.78;78.43
73024;BME280;72676;47.526;8.538;2023-12-20T02:42:54;96671.78;;;4.83;78.99
73024;BME280;72676;47.526;8.538;2023-12-20T02:45:21;96659.75;;;4.82;78.98
73024;BME280;72676;47.526;8.538;2023-12-20T02:47:47;96669.59;;;4.77;79.66
73024;BME280;72676;47.526;8.538;2023-12-20T02:50:14;96658.66;;;4.72;80.30
73024;BME280;72676;47.526;8.538;2023-12-20T02:52:40;96664.50;;;4.76;79.98
73024;BME280;72676;47.526;8.538;2023-12-20T02:55:07;96661.97;;;4.74;80.91
73024;BME280;72676;47.526;8.538;2023-12-20T02:57:33;96659.00;;;4.80;80.77
73024;BME280;72676;47.526;8.538;2023-12-20T03:00:02;96664.56;;;4.74;81.80
73024;BME280;72676;47.526;8.538;2023-12-20T03:02:29;96654.97;;;4.76;82.34
73024;BME280;72676;47.526;8.538;2023-12-20T03:04:55;96655.13;;;4.73;83.00
73024;BME280;72676;47.526;8.538;2023-12-20T03:07:22;96652.81;;;4.69;83.91
73024;BME280;72676;47.526;8.538;2023-12-20T03:09:49;96649.28;;;4.70;83.95
73024;BME280;72676;47.526;8.538;2023-12-20T03:12:35;96650.78;;;4.74;84.50
73024;BME280;72676;47.526;8.538;2023-12-20T03:15:02;96645.88;;;4.69;84.71
73024;BME280;72676;47.526;8.538;2023-12-20T03:17:28;96655.69;;;4.64;84.97
73024;BME280;72676;47.526;8.538;2023-12-20T03:19:55;96657.34;;;4.65;85.43
73024;BME280;72676;47.526;8.538;2023-12-20T03:22:22;96652.06;;;4.67;84.90
73024;BME280;72676;47.526;8.538;2023-12-20T03:24:48;96653.84;;;4.66;85.40
73024;BME280;72676;47.526;8.538;2023-12-20T03:27:15;96664.41;;;4.77;85.09
73024;BME280;72676;47.526;8.538;2023-12-20T03:29:41;96664.50;;;4.76;85.62
73024;BME280;72676;47.526;8.538;2023-12-20T03:32:07;96660.72;;;4.67;86.12
73024;BME280;72676;47.526;8.538;2023-12-20T03:34:34;96663.66;;;4.75;86.15
73024;BME280;72676;47.526;8.538;2023-12-20T03:37:01;96673.00;;;4.78;86.38
73024;BME280;72676;47.526;8.538;2023-12-20T03:39:28;96670.88;;;4.70;86.50
73024;BME280;72676;47.526;8.538;2023-12-20T03:41:54;96684.13;;;4.66;86.81
73024;BME280;72676;47.526;8.538;2023-12-20T03:44:21;96673.09;;;4.62;87.36
73024;BME280;72676;47.526;8.538;2023-12-20T03:46:48;96679.50;;;4.57;87.96
73024;BME280;72676;47.526;8.538;2023-12-20T03:49:15;96674.97;;;4.60;87.82
73024;BME280;72676;47.526;8.538;2023-12-20T03:51:41;96674.59;;;4.66;88.05
73024;BME280;72676;47.526;8.538;2023-12-20T03:54:09;96676.34;;;4.66;87.97
73024;BME280;72676;47.526;8.538;2023-12-20T03:56:35;96675.16;;;4.57;87.98
73024;BME280;72676;47.526;8.538;2023-12-20T03:59:01;96673.38;;;4.58;88.69
73024;BME280;72676;47.526;8.538;2023-12-20T04:01:28;96665.06;;;4.53;88.81
73024;BME280;72676;47.526;8.538;2023-12-20T04:03:55;96668.94;;;4.60;88.72
73024;BME280;72676;47.526;8.538;2023-12-20T04:06:21;96670.25;;;4.53;89.61
73024;BME280;72676;47.526;8.538;2023-12-20T04:08:48;96675.72;;;4.48;89.53
73024;BME280;72676;47.526;8.538;2023-12-20T04:11:14;96677.56;;;4.60;89.55
73024;BME280;72676;47.526;8.538;2023-12-20T04:13:41;96685.69;;;4.54;89.83
73024;BME280;72676;47.526;8.538;2023-12-20T04:16:07;96687.19;;;4.58;89.85
73024;BME280;72676;47.526;8.538;2023-12-20T04:18:34;96687.75;;;4.63;90.33
73024;BME280;72676;47.526;8.538;2023-12-20T04:21:01;96691.44;;;4.73;90.11
73024;BME280;72676;47.526;8.538;2023-12-20T04:23:27;96694.69;;;4.63;89.88
73024;BME280;72676;47.526;8.538;2023-12-20T04:25:54;96695.91;;;4.71;89.77
73024;BME280;72676;47.526;8.538;2023-12-20T04:28:20;96700.53;;;4.66;90.52
73024;BME280;72676;47.526;8.538;2023-12-20T04:30:47;96705.34;;;4.72;90.13
73024;BME280;72676;47.526;8.538;2023-12-20T04:33:14;96712.19;;;4.73;90.00
73024;BME280;72676;47.526;8.538;2023-12-20T04:35:40;96726.66;;;4.63;90.90
73024;BME280;72676;47.526;8.538;2023-12-20T04:38:09;96722.31;;;4.64;91.18
73024;BME280;72676;47.526;8.538;2023-12-20T04:40:35;96729.34;;;4.62;91.35
73024;BME280;72676;47.526;8.538;2023-12-20T04:43:02;96730.94;;;4.78;91.30
73024;BME280;72676;47.526;8.538;2023-12-20T04:45:28;96723.34;;;4.75;90.96
73024;BME280;72676;47.526;8.538;2023-12-20T04:47:55;96726.56;;;4.79;91.02
73024;BME280;72676;47.526;8.538;2023-12-20T04:50:21;96729.53;;;4.87;91.02
73024;BME280;72676;47.526;8.538;2023-12-20T04:52:48;96730.72;;;4.81;91.23
73024;BME280;72676;47.526;8.538;2023-12-20T04:55:14;96720.00;;;4.87;90.40
73024;BME280;72676;47.526;8.538;2023-12-20T04:57:41;96723.59;;;4.85;91.05
73024;BME280;72676;47.526;8.538;2023-12-20T05:00:08;96719.16;;;4.87;90.99
73024;BME280;72676;47.526;8.538;2023-12-20T05:02:35;96738.91;;;4.75;92.27
73024;BME280;72676;47.526;8.538;2023-12-20T05:05:02;96729.16;;;4.79;92.16
73024;BME280;72676;47.526;8.538;2023-12-20T05:07:29;96732.78;;;4.90;90.98
73024;BME280;72676;47.526;8.538;2023-12-20T05:09:55;96725.63;;;4.94;91.17
73024;BME280;72676;47.526;8.538;2023-12-20T05:12:22;96729.09;;;4.94;91.53
73024;BME280;72676;47.526;8.538;2023-12-20T05:14:48;96730.56;;;4.98;91.30
73024;BME280;72676;47.526;8.538;2023-12-20T05:17:15;96718.31;;;5.00;91.22
73024;BME280;72676;47.526;8.538;2023-12-20T05:19:41;96717.38;;;5.01;91.17
73024;BME280;72676;47.526;8.538;2023-12-20T05:22:08;96720.72;;;5.03;91.27
73024;BME280;72676;47.526;8.538;2023-12-20T05:24:34;96730.63;;;4.97;91.39
73024;BME280;72676;47.526;8.538;2023-12-20T05:27:01;96726.50;;;4.94;91.74
73024;BME280;72676;47.526;8.538;2023-12-20T05:29:27;96731.09;;;4.89;91.38
73024;BME280;72676;47.526;8.538;2023-12-20T05:31:53;96737.53;;;4.98;92.46
73024;BME280;72676;47.526;8.538;2023-12-20T05:34:20;96743.00;;;4.93;91.86
73024;BME280;72676;47.526;8.538;2023-12-20T05:36:47;96761.97;;;4.94;91.67
73024;BME280;72676;47.526;8.538;2023-12-20T05:39:13;96749.00;;;5.08;91.47
73024;BME280;72676;47.526;8.538;2023-12-20T05:41:40;96748.91;;;5.23;91.30
73024;BME280;72676;47.526;8.538;2023-12-20T05:44:06;96748.50;;;5.29;90.93
73024;BME280;72676;47.526;8.538;2023-12-20T05:46:33;96758.06;;;5.29;91.20
73024;BME280;72676;47.526;8.538;2023-12-20T05:48:59;96751.22;;;5.28;90.80
73024;BME280;72676;47.526;8.538;2023-12-20T05:51:26;96746.59;;;5.19;91.32
73024;BME280;72676;47.526;8.538;2023-12-20T05:53:52;96741.66;;;5.14;91.52
73024;BME280;72676;47.526;8.538;2023-12-20T05:56:19;96735.34;;;5.18;91.15
73024;BME280;72676;47.526;8.538;2023-12-20T05:58:45;96737.22;;;5.16;91.63
73024;BME280;72676;47.526;8.538;2023-12-20T06:01:14;96744.00;;;5.19;91.59
73024;BME280;72676;47.526;8.538;2023-12-20T06:03:41;96750.00;;;5.19;91.54
73024;BME280;72676;47.526;8.538;2023-12-20T06:06:08;96764.06;;;5.29;91.48
73024;BME280;72676;47.526;8.538;2023-12-20T06:08:42;96765.56;;;5.33;91.09
73024;BME280;72676;47.526;8.538;2023-12-20T06:11:10;96757.41;;;5.25;91.20
73024;BME280;72676;47.526;8.538;2023-12-20T06:13:36;96764.31;;;5.12;92.20
73024;BME280;72676;47.526;8.538;2023-12-20T06:16:05;96764.09;;;5.15;92.30
73024;BME280;72676;47.526;8.538;2023-12-20T06:18:32;96765.50;;;5.07;92.86
73024;BME280;72676;47.526;8.538;2023-12-20T06:20:59;96762.91;;;5.07;93.08
73024;BME280;72676;47.526;8.538;2023-12-20T06:23:25;96764.31;;;5.12;93.33
73024;BME280;72676;47.526;8.538;2023-12-20T06:25:53;96765.22;;;5.11;93.01
73024;BME280;72676;47.526;8.538;2023-12-20T06:28:19;96774.84;;;5.09;93.29
73024;BME280;72676;47.526;8.538;2023-12-20T06:30:46;96774.47;;;5.01;93.23
73024;BME280;72676;47.526;8.538;2023-12-20T06:33:15;96775.03;;;5.06;94.16
73024;BME280;72676;47.526;8.538;2023-12-20T06:35:42;96777.84;;;5.03;94.42
73024;BME280;72676;47.526;8.538;2023-12-20T06:38:08;96783.69;;;5.07;94.86
73024;BME280;72676;47.526;8.538;2023-12-20T06:40:35;96784.50;;;5.21;94.74
73024;BME280;72676;47.526;8.538;2023-12-20T06:43:02;96782.72;;;5.22;94.26
73024;BME280;72676;47.526;8.538;2023-12-20T06:45:41;96781.91;;;5.21;94.38
73024;BME280;72676;47.526;8.538;2023-12-20T06:48:08;96791.09;;;5.27;94.52
73024;BME280;72676;47.526;8.538;2023-12-20T06:50:37;96789.88;;;5.32;94.32
73024;BME280;72676;47.526;8.538;2023-12-20T06:53:06;96799.97;;;5.37;94.49
73024;BME280;72676;47.526;8.538;2023-12-20T06:55:35;96804.13;;;5.53;94.04
73024;BME280;72676;47.526;8.538;2023-12-20T06:58:02;96803.75;;;5.59;93.26
73024;BME280;72676;47.526;8.538;2023-12-20T07:00:30;96792.44;;;5.60;93.27
73024;BME280;72676;47.526;8.538;2023-12-20T07:02:56;96802.63;;;5.63;93.37
73024;BME280;72676;47.526;8.538;2023-12-20T07:05:24;96801.31;;;5.70;93.08
73024;BME280;72676;47.526;8.538;2023-12-20T07:07:50;96799.50;;;5.58;93.59
73024;BME280;72676;47.526;8.538;2023-12-20T07:10:17;96800.22;;;5.60;93.77
73024;BME280;72676;47.526;8.538;2023-12-20T07:12:44;96798.13;;;5.53;94.46
73024;BME280;72676;47.526;8.538;2023-12-20T07:15:11;96801.34;;;5.56;93.86
73024;BME280;72676;47.526;8.538;2023-12-20T07:17:37;96812.28;;;5.61;94.00
73024;BME280;72676;47.526;8.538;2023-12-20T07:20:04;96820.28;;;5.58;94.07
73024;BME280;72676;47.526;8.538;2023-12-20T07:22:33;96809.03;;;5.71;93.91
73024;BME280;72676;47.526;8.538;2023-12-20T07:25:00;96815.50;;;5.92;93.72
73024;BME280;72676;47.526;8.538;2023-12-20T07:27:27;96815.41;;;5.94;93.13
73024;BME280;72676;47.526;8.538;2023-12-20T07:29:54;96812.81;;;5.94;92.89
73024;BME280;72676;47.526;8.538;2023-12-20T07:32:20;96816.88;;;5.98;92.52
73024;BME280;72676;47.526;8.538;2023-12-20T07:34:47;96819.81;;;6.06;92.74
73024;BME280;72676;47.526;8.538;2023-12-20T07:37:14;96808.84;;;6.15;91.99
73024;BME280;72676;47.526;8.538;2023-12-20T07:39:41;96818.75;;;6.22;91.37
73024;BME280;72676;47.526;8.538;2023-12-20T07:42:08;96821.38;;;6.35;91.19
73024;BME280;72676;47.526;8.538;2023-12-20T07:44:35;96828.38;;;6.47;90.57
73024;BME280;72676;47.526;8.538;2023-12-20T07:47:04;96838.34;;;6.67;89.90
73024;BME280;72676;47.526;8.538;2023-12-20T07:49:31;96841.25;;;6.75;89.68
73024;BME280;72676;47.526;8.538;2023-12-20T07:51:58;96832.03;;;6.96;89.08
73024;BME280;72676;47.526;8.538;2023-12-20T07:54:25;96830.53;;;6.79;88.25
73024;BME280;72676;47.526;8.538;2023-12-20T07:56:51;96831.88;;;6.60;89.17
73024;BME280;72676;47.526;8.538;2023-12-20T07:59:18;96828.84;;;6.53;88.74
73024;BME280;72676;47.526;8.538;2023-12-20T08:01:57;96826.72;;;6.46;89.21
73024;BME280;72676;47.526;8.538;2023-12-20T08:04:24;96842.75;;;6.52;89.54
73024;BME280;72676;47.526;8.538;2023-12-20T08:06:51;96842.00;;;6.38;89.88
73024;BME280;72676;47.526;8.538;2023-12-20T08:09:18;96853.25;;;6.38;89.91
73024;BME280;72676;47.526;8.538;2023-12-20T08:11:46;96852.75;;;6.19;90.45
73024;BME280;72676;47.526;8.538;2023-12-20T08:14:13;96840.41;;;6.23;91.34
73024;BME280;72676;47.526;8.538;2023-12-20T08:16:40;96851.03;;;6.06;91.77
73024;BME280;72676;47.526;8.538;2023-12-20T08:19:07;96851.59;;;5.97;92.57
73024;BME280;72676;47.526;8.538;2023-12-20T08:21:34;96845.44;;;6.12;92.39
73024;BME280;72676;47.526;8.538;2023-12-20T08:24:03;96853.06;;;6.01;92.04
73024;BME280;72676;47.526;8.538;2023-12-20T08:26:30;96853.28;;;5.84;92.63
73024;BME280;72676;47.526;8.538;2023-12-20T08:28:56;96852.56;;;5.82;92.94
73024;BME280;72676;47.526;8.538;2023-12-20T08:31:27;96852.38;;;5.85;92.69
73024;BME280;72676;47.526;8.538;2023-12-20T08:33:54;96850.88;;;5.81;93.35
73024;BME280;72676;47.526;8.538;2023-12-20T08:36:21;96861.81;;;6.00;92.92
73024;BME280;72676;47.526;8.538;2023-12-20T08:38:49;96864.81;;;5.94;92.96
73024;BME280;72676;47.526;8.538;2023-12-20T08:41:16;96863.03;;;5.94;93.51
73024;BME280;72676;47.526;8.538;2023-12-20T08:43:43;96858.81;;;6.06;92.80
73024;BME280;72676;47.526;8.538;2023-12-20T08:46:10;96862.06;;;6.09;92.28
73024;BME280;72676;47.526;8.538;2023-12-20T08:48:37;96865.34;;;5.99;93.18
73024;BME280;72676;47.526;8.538;2023-12-20T08:51:04;96861.81;;;6.00;93.23
73024;BME280;72676;47.526;8.538;2023-12-20T08:53:31;96860.06;;;6.00;92.79
73024;BME280;72676;47.526;8.538;2023-12-20T08:55:58;96860.13;;;5.99;93.39
73024;BME280;72676;47.526;8.538;2023-12-20T08:58:28;96870.53;;;5.99;93.01
73024;BME280;72676;47.526;8.538;2023-12-20T09:00:54;96862.38;;;5.91;93.35
73024;BME280;72676;47.526;8.538;2023-12-20T09:03:21;96860.34;;;5.96;93.20
73024;BME280;72676;47.526;8.538;2023-12-20T09:05:47;96851.59;;;5.97;93.48
73024;BME280;72676;47.526;8.538;2023-12-20T09:08:14;96865.25;;;6.00;93.14
73024;BME280;72676;47.526;8.538;2023-12-20T09:10:40;96864.13;;;6.04;93.17
73024;BME280;72676;47.526;8.538;2023-12-20T09:13:07;96876.44;;;6.15;92.76
73024;BME280;72676;47.526;8.538;2023-12-20T09:15:33;96871.91;;;6.18;92.85
73024;BME280;72676;47.526;8.538;2023-12-20T09:18:02;96866.53;;;6.07;93.12
73024;BME280;72676;47.526;8.538;2023-12-20T09:20:30;96879.25;;;6.12;92.74
73024;BME280;72676;47.526;8.538;2023-12-20T09:22:57;96876.66;;;6.12;93.10
73024;BME280;72676;47.526;8.538;2023-12-20T09:25:23;96874.66;;;6.15;92.58
73024;BME280;72676;47.526;8.538;2023-12-20T09:27:50;96873.56;;;6.19;92.83
73024;BME280;72676;47.526;8.538;2023-12-20T09:30:17;96870.47;;;6.27;92.25
73024;BME280;72676;47.526;8.538;2023-12-20T09:32:53;96876.94;;;6.34;91.73
73024;BME280;72676;47.526;8.538;2023-12-20T09:35:20;96876.66;;;6.38;91.12
73024;BME280;72676;47.526;8.538;2023-12-20T09:37:46;96875.34;;;6.45;91.37
73024;BME280;72676;47.526;8.538;2023-12-20T09:40:13;96870.44;;;6.41;90.95
73024;BME280;72676;47.526;8.538;2023-12-20T09:42:51;96871.97;;;6.43;91.35
73024;BME280;72676;47.526;8.538;2023-12-20T09:45:21;96879.47;;;6.48;91.15
73024;BME280;72676;47.526;8.538;2023-12-20T09:47:52;96879.53;;;6.60;90.83
73024;BME280;72676;47.526;8.538;2023-12-20T09:50:20;96878.38;;;6.52;90.54
73024;BME280;72676;47.526;8.538;2023-12-20T09:52:52;96877.94;;;6.45;90.72
73024;BME280;72676;47.526;8.538;2023-12-20T09:55:19;96876.16;;;6.46;90.87
73024;BME280;72676;47.526;8.538;2023-12-20T09:57:47;96874.13;;;6.37;91.44
73024;BME280;72676;47.526;8.538;2023-12-20T10:00:15;96863.69;;;6.51;91.14
73024;BME280;72676;47.526;8.538;2023-12-20T10:02:56;96869.53;;;6.54;90.56
73024;BME280;72676;47.526;8.538;2023-12-20T10:05:31;96874.69;;;6.42;91.29
73024;BME280;72676;47.526;8.538;2023-12-20T10:07:59;96879.59;;;6.46;90.91
73024;BME280;72676;47.526;8.538;2023-12-20T10:10:27;96875.09;;;6.62;89.70
73024;BME280;72676;47.526;8.538;2023-12-20T10:13:11;96873.69;;;6.57;90.32
73024;BME280;72676;47.526;8.538;2023-12-20T10:15:38;96872.72;;;6.45;90.34
73024;BME280;72676;47.526;8.538;2023-12-20T10:18:05;96855.94;;;6.37;91.08
73024;BME280;72676;47.526;8.538;2023-12-20T10:20:33;96849.50;;;6.42;90.61
73024;BME280;72676;47.526;8.538;2023-12-20T10:23:01;96843.81;;;6.50;90.04
73024;BME280;72676;47.526;8.538;2023-12-20T10:25:28;96847.88;;;6.54;90.09
73024;BME280;72676;47.526;8.538;2023-12-20T10:28:15;96838.06;;;6.45;90.55
73024;BME280;72676;47.526;8.538;2023-12-20T10:30:45;96835.22;;;6.74;89.50
73024;BME280;72676;47.526;8.538;2023-12-20T10:33:12;96833.78;;;6.83;89.07
73024;BME280;72676;47.526;8.538;2023-12-20T10:35:39;96827.84;;;6.81;87.97
73024;BME280;72676;47.526;8.538;2023-12-20T10:38:11;96817.13;;;6.98;88.08
73024;BME280;72676;47.526;8.538;2023-12-20T10:40:39;96827.56;;;7.23;86.89
73024;BME280;72676;47.526;8.538;2023-12-20T10:43:07;96822.75;;;7.04;87.58
73024;BME280;72676;47.526;8.538;2023-12-20T10:45:34;96818.75;;;6.74;88.35
73024;BME280;72676;47.526;8.538;2023-12-20T10:48:02;96814.22;;;6.90;87.96
73024;BME280;72676;47.526;8.538;2023-12-20T10:50:29;96828.38;;;6.86;88.51
73024;BME280;72676;47.526;8.538;2023-12-20T10:52:57;96829.22;;;6.47;89.74
73024;BME280;72676;47.526;8.538;2023-12-20T10:55:25;96821.84;;;6.54;89.86
73024;BME280;72676;47.526;8.538;2023-12-20T10:57:52;96815.84;;;6.78;89.62
73024;BME280;72676;47.526;8.538;2023-12-20T11:00:23;96815.69;;;6.81;88.61
73024;BME280;72676;47.526;8.538;2023-12-20T11:02:50;96806.06;;;6.82;88.85
73024;BME280;72676;47.526;8.538;2023-12-20T11:08:14;96802.53;;;6.83;88.63
73024;BME280;72676;47.526;8.538;2023-12-20T11:10:56;96805.44;;;6.53;88.47
73024;BME280;72676;47.526;8.538;2023-12-20T11:13:33;96802.97;;;6.38;89.80
73024;BME280;72676;47.526;8.538;2023-12-20T11:16:01;96808.16;;;6.38;90.03
73024;BME280;72676;47.526;8.538;2023-12-20T11:18:30;96797.00;;;6.50;89.12
73024;BME280;72676;47.526;8.538;2023-12-20T11:21:04;96798.97;;;6.59;87.90
73024;BME280;72676;47.526;8.538;2023-12-20T11:23:32;96796.78;;;6.53;87.98
73024;BME280;72676;47.526;8.538;2023-12-20T11:26:01;96795.28;;;6.36;87.16
73024;BME280;72676;47.526;8.538;2023-12-20T11:28:28;96800.88;;;6.30;87.93
73024;BME280;72676;47.526;8.538;2023-12-20T11:30:57;96790.16;;;6.35;87.91
73024;BME280;72676;47.526;8.538;2023-12-20T11:33:37;96784.91;;;6.49;87.25
73024;BME280;72676;47.526;8.538;2023-12-20T11:36:12;96791.16;;;6.46;86.12
73024;BME280;72676;47.526;8.538;2023-12-20T11:38:53;96782.63;;;6.44;84.66
73024;BME280;72676;47.526;8.538;2023-12-20T11:41:22;96791.06;;;6.60;84.87
73024;BME280;72676;47.526;8.538;2023-12-20T11:43:53;96793.03;;;6.57;82.28
73024;BME280;72676;47.526;8.538;2023-12-20T11:46:20;96796.88;;;6.64;81.88
73024;BME280;72676;47.526;8.538;2023-12-20T11:48:47;96786.31;;;6.67;81.13
73024;BME280;72676;47.526;8.538;2023-12-20T11:51:14;96790.97;;;6.62;80.24
73024;BME280;72676;47.526;8.538;2023-12-20T11:53:41;96800.09;;;6.55;79.17
73024;BME280;72676;47.526;8.538;2023-12-20T11:56:11;96787.06;;;6.42;77.13
73024;BME280;72676;47.526;8.538;2023-12-20T11:58:37;96785.44;;;6.54;77.63
73024;BME280;72676;47.526;8.538;2023-12-20T12:01:04;96797.50;;;6.55;76.79
73024;BME280;72676;47.526;8.538;2023-12-20T12:03:34;96799.38;;;6.53;74.67
73024;BME280;72676;47.526;8.538;2023-12-20T12:06:01;96781.56;;;6.47;74.96
73024;BME280;72676;47.526;8.538;2023-12-20T12:08:29;96783.56;;;6.56;74.51
73024;BME280;72676;47.526;8.538;2023-12-20T12:10:56;96783.88;;;6.64;74.87
73024;BME280;72676;47.526;8.538;2023-12-20T12:13:23;96784.22;;;6.72;72.78
73024;BME280;72676;47.526;8.538;2023-12-20T12:15:53;96790.59;;;6.80;73.60
73024;BME280;72676;47.526;8.538;2023-12-20T12:18:20;96771.84;;;6.88;73.28
73024;BME280;72676;47.526;8.538;2023-12-20T12:20:47;96779.53;;;7.02;73.45
73024;BME280;72676;47.526;8.538;2023-12-20T12:23:14;96773.69;;;7.11;71.90
73024;BME280;72676;47.526;8.538;2023-12-20T12:25:40;96768.78;;;7.06;72.08
73024;BME280;72676;47.526;8.538;2023-12-20T12:28:09;96773.59;;;7.12;72.47
73024;BME280;72676;47.526;8.538;2023-12-20T12:30:36;96777.13;;;7.24;71.71
73024;BME280;72676;47.526;8.538;2023-12-20T12:33:11;96768.59;;;7.09;71.65
73024;BME280;72676;47.526;8.538;2023-12-20T12:35:40;96770.28;;;6.98;71.22
73024;BME280;72676;47.526;8.538;2023-12-20T12:38:07;96780.47;;;7.01;71.51
73024;BME280;72676;47.526;8.538;2023-12-20T12:40:35;96782.13;;;7.27;71.76
73024;BME280;72676;47.526;8.538;2023-12-20T12:43:03;96777.13;;;7.24;70.35
73024;BME280;72676;47.526;8.538;2023-12-20T12:45:30;96783.59;;;7.31;69.33
73024;BME280;72676;47.526;8.538;2023-12-20T12:47:57;96783.38;;;7.34;70.44
73024;BME280;72676;47.526;8.538;2023-12-20T12:50:23;96779.22;;;7.19;69.98
73024;BME280;72676;47.526;8.538;2023-12-20T12:52:50;96787.75;;;7.21;69.98
73024;BME280;72676;47.526;8.538;2023-12-20T12:55:16;96798.59;;;7.27;70.24
73024;BME280;72676;47.526;8.538;2023-12-20T12:57:44;96792.88;;;7.10;69.20
73024;BME280;72676;47.526;8.538;2023-12-20T13:00:12;96795.69;;;6.94;69.46
73024;BME280;72676;47.526;8.538;2023-12-20T13:02:39;96804.00;;;6.74;69.93
73024;BME280;72676;47.526;8.538;2023-12-20T13:05:08;96787.22;;;6.53;69.64
73024;BME280;72676;47.526;8.538;2023-12-20T13:07:35;96798.56;;;6.65;69.97
73024;BME280;72676;47.526;8.538;2023-12-20T13:10:04;96798.97;;;6.59;70.54
73024;BME280;72676;47.526;8.538;2023-12-20T13:12:32;96813.06;;;6.42;69.93
73024;BME280;72676;47.526;8.538;2023-12-20T13:14:58;96798.53;;;6.40;70.25